Roaring Springs, Texas
Current Conditions -  °F | °C
As of 7:53 PM on Monday 24 Nov 2014 (Local Time) from KCDS Reporting Station
Clear Clear  
Wind Chill: 50°   Ceiling: Unl
Heat Index: 50°   Visibility: 10mi
Dew Point: 23°   Wind: 12mph
Humidity: 35%   Direction: 340°NNW
Pressure: 30.11"   Gusts: NA
Location:  33.9°N, 100.86°W
Report Text: KCDS 250153Z AUTO 34010KT 10SM CLR 10/M05 A3011 RMK AO2 SLP198 T01001050
Loading
Personal Weather Stations






























Interactive Weather Map New forecast layout! Learn more

10-Day Weather Forecast

Advertisements
Track Severe Weather on mobile